Berea, Kentucky
Current Conditions -  °F | °C
As of 8:35 PM on Thursday 27 Nov 2014 (Local Time) from KI39 Reporting Station
Overcast Overcast  
Wind Chill: 21°   Ceiling: 2600
Heat Index: 30°   Visibility: 10mi
Dew Point: 21°   Wind: 12mph
Humidity: 69%   Direction: 270°W
Pressure: 30.4"   Gusts: 16mph
Location:  37.57°N, 84.29°W
Report Text: KI39 280135Z AUTO 27010G14KT 10SM OVC026 M01/M06 A3040 RMK AO2
Loading
Personal Weather Stations






























Interactive Weather Map New forecast layout! Learn more

10-Day Weather Forecast

Advertisements
Track Severe Weather on mobile